Benghazi/Benina, Libya
Current Conditions -  °F | °C
As of 7:50 PM on Tuesday 27 Jan 2015 (Local Time) from LGSA Reporting Station
Scattered Clouds Scattered Clouds  
Wind Chill: 52°   Ceiling: Unl
Heat Index: 52°   Visibility: 6mi
Dew Point: 37°   Wind: 5mph
Humidity: 58%   Direction: 260°W
Pressure: 29.8"   Gusts: NA
Location:  32.08°N, 20.27°E
Report Text: LGSA 271650Z 26004KT 9999 FEW018TCU SCT030 11/03 Q1009
Loading
Personal Weather Stations






























Interactive Weather Map New forecast layout! Learn more

10-Day Weather Forecast

Advertisements
Track Severe Weather on mobile